Time;durP1;ratioP1;P1;durP2;ratioP2;P2;SDS_P1;SDS_P2;PMS_P1;PMS_P2;Temp;Humidity;BMP_temperature;BMP_pressure;BME280_temperature;BME280_humidity;BME280_pressure;Samples;Min_cycle;Max_cycle;Signal;HPM_P1;HPM_P2
2021/03/12 00:23:19;;;;;;;1999.90;999.90;;;6.80;99.90;;;;;;5931509;24;20029;-95
2021/03/12 00:27:01;;;;;;;;;;;;;;;;;;;;;
2021/03/12 00:52:32;;;;;;;1999.90;999.90;;;6.70;99.90;;;;;;6033130;23;20078;-94
2021/03/12 00:55:04;;;;;;;1999.90;999.90;;;6.70;99.90;;;;;;6096745;23;20494;-94
2021/03/12 00:57:36;;;;;;;1999.90;999.90;;;6.70;99.90;;;;;;6181925;23;20024;-93
2021/03/12 01:02:58;;;;;;;1999.90;999.90;;;6.70;99.90;;;;;;6214282;23;20443;-94
2021/03/12 01:13:05;;;;;;;1999.90;999.90;;;6.70;99.90;;;;;;6176844;23;20026;-94
2021/03/12 01:15:40;;;;;;;1999.90;999.90;;;6.70;99.90;;;;;;6248851;23;20454;-93
2021/03/12 01:18:13;;;;;;;1999.90;999.90;;;6.70;99.90;;;;;;6248411;23;20039;-93
2021/03/12 01:20:55;;;;;;;1999.90;999.90;;;6.70;99.90;;;;;;6247733;23;20099;-94
2021/03/12 01:23:38;;;;;;;1999.90;999.90;;;6.70;99.90;;;;;;6248138;23;20328;-94
2021/03/12 01:26:29;;;;;;;1999.90;999.90;;;6.80;99.90;;;;;;6247799;23;20016;-93
2021/03/12 01:29:34;;;;;;;;;;;;;;;;;;;;;
2021/03/12 01:32:19;;;;;;;1999.90;999.90;;;6.70;99.90;;;;;;6248114;23;20047;-93
2021/03/12 01:35:03;;;;;;;1999.90;999.90;;;6.70;99.90;;;;;;6247442;23;20056;-94
2021/03/12 01:45:54;;;;;;;1999.90;999.90;;;6.70;99.90;;;;;;6126957;23;20056;-93
2021/03/12 01:48:54;;;;;;;1999.90;999.90;;;6.70;99.90;;;;;;6135770;23;20453;-93
2021/03/12 01:51:51;;;;;;;1999.90;999.90;;;6.60;99.90;;;;;;6151558;23;20032;-94
2021/03/12 01:54:48;;;;;;;1999.90;999.90;;;6.60;99.90;;;;;;6161631;23;20036;-94
2021/03/12 01:58:03;;;;;;;1999.90;999.90;;;6.60;99.90;;;;;;6247427;23;20020;-93
2021/03/12 02:00:41;;;;;;;1999.90;999.90;;;6.60;99.90;;;;;;6247179;23;20043;-93
2021/03/12 02:03:14;;;;;;;1999.90;999.90;;;6.50;99.90;;;;;;6247867;23;20020;-93
2021/03/12 02:06:06;;;;;;;1999.90;999.90;;;6.50;99.90;;;;;;6247843;23;20024;-94
2021/03/12 02:08:49;;;;;;;1999.90;999.90;;;6.50;99.90;;;;;;6248485;23;20103;-93
2021/03/12 02:11:44;;;;;;;1999.90;999.90;;;6.50;99.90;;;;;;6243721;23;20471;-93
2021/03/12 02:14:27;;;;;;;1999.90;999.90;;;6.50;99.90;;;;;;6248308;23;20047;-94
2021/03/12 02:17:13;;;;;;;1999.90;999.90;;;6.40;99.90;;;;;;6248205;23;20020;-94
2021/03/12 02:20:14;;;;;;;1999.90;999.90;;;6.40;99.90;;;;;;6247253;23;20030;-93
2021/03/12 02:23:23;;;;;;;1999.90;999.90;;;6.40;99.90;;;;;;6247392;23;20074;-93
2021/03/12 02:26:22;;;;;;;1999.90;999.90;;;6.40;99.90;;;;;;6244640;23;20039;-93
2021/03/12 02:29:09;;;;;;;1999.90;999.90;;;6.30;99.90;;;;;;6247237;23;20024;-93
2021/03/12 02:32:02;;;;;;;1999.90;999.90;;;6.30;99.90;;;;;;6247646;23;20024;-92
2021/03/12 02:34:54;;;;;;;1999.90;999.90;;;6.30;99.90;;;;;;6248066;23;20024;-93
2021/03/12 02:37:36;;;;;;;1999.90;999.90;;;6.30;99.90;;;;;;6247316;23;20074;-93
2021/03/12 02:40:33;;;;;;;1999.90;999.90;;;6.20;99.90;;;;;;6246834;23;20027;-94
2021/03/12 02:43:23;;;;;;;1999.90;999.90;;;6.20;99.90;;;;;;6247644;23;20103;-94
2021/03/12 02:46:07;;;;;;;1999.90;999.90;;;6.30;99.90;;;;;;6247714;23;20026;-93
2021/03/12 02:48:49;;;;;;;1999.90;999.90;;;6.20;99.90;;;;;;6247190;23;20027;-94
2021/03/12 02:52:01;;;;;;;1999.90;999.90;;;6.20;99.90;;;;;;6247270;23;20035;-94
2021/03/12 02:55:02;;;;;;;1999.90;999.90;;;6.20;99.90;;;;;;6246006;23;20026;-94
2021/03/12 02:57:57;;;;;;;1999.90;999.90;;;6.20;99.90;;;;;;6247789;22;20017;-94
2021/03/12 03:00:41;;;;;;;1999.90;999.90;;;6.20;99.90;;;;;;6248275;23;20074;-94
2021/03/12 03:04:43;;;;;;;1999.90;999.90;;;6.10;99.90;;;;;;6247598;23;20062;-94
2021/03/12 03:15:17;;;;;;;;;;;;;;;;;;;;;
2021/03/12 03:36:27;;;;;;;1999.90;999.90;;;5.90;99.90;;;;;;5916826;24;20080;-94
2021/03/12 03:39:32;;;;;;;1999.90;999.90;;;5.90;99.90;;;;;;6039436;23;20182;-94
2021/03/12 03:54:22;;;;;;;1999.90;999.90;;;5.90;99.90;;;;;;5889568;24;20395;-93
2021/03/12 03:58:21;;;;;;;1999.90;999.90;;;5.80;99.90;;;;;;5955725;24;20020;-94
2021/03/12 04:01:27;;;;;;;1999.90;999.90;;;5.90;99.90;;;;;;6012072;23;20110;-94
2021/03/12 04:30:59;;;;;;;;;;;;;;;;;;;;;
2021/03/12 04:40:26;;;;;;;1999.90;999.90;;;5.80;99.90;;;;;;6000672;23;20027;-93
2021/03/12 04:43:15;;;;;;;1999.90;999.90;;;5.80;99.90;;;;;;6011936;23;20448;-93
2021/03/12 04:46:26;;;;;;;1999.90;999.90;;;5.80;99.90;;;;;;6019399;23;20026;-94
2021/03/12 04:49:37;;;;;;;1999.90;999.90;;;5.80;99.90;;;;;;6141091;23;20025;-94
2021/03/12 04:55:44;;;;;;;1999.90;999.90;;;5.80;99.90;;;;;;6160761;23;20037;-93
2021/03/12 04:58:33;;;;;;;1999.90;999.90;;;5.80;99.90;;;;;;6249446;23;20027;-95
2021/03/12 05:01:32;;;;;;;1999.90;999.90;;;5.80;99.90;;;;;;6252969;23;20030;-93
2021/03/12 05:08:07;;;;;;;1999.90;999.90;;;5.80;99.90;;;;;;6245791;23;20039;-93
2021/03/12 05:28:53;;;;;;;1999.90;999.90;;;5.80;99.90;;;;;;5905102;24;20497;-94
2021/03/12 05:32:08;;;;;;;1999.90;999.90;;;5.80;99.90;;;;;;5977097;23;20137;-93
2021/03/12 05:35:15;;;;;;;1999.90;999.90;;;5.80;99.90;;;;;;6155629;23;20032;-93
2021/03/12 05:38:07;;;;;;;1999.90;999.90;;;5.80;99.90;;;;;;6153310;23;20028;-94
2021/03/12 05:40:47;;;;;;;1999.90;999.90;;;5.80;99.90;;;;;;6155296;23;20026;-93
2021/03/12 05:44:12;;;;;;;;;;;;;;;;;;;;;
2021/03/12 05:47:33;;;;;;;;;;;;;;;;;;;;;
2021/03/12 05:50:32;;;;;;;1999.90;999.90;;;5.80;99.90;;;;;;6154985;23;20025;-93
2021/03/12 05:53:34;;;;;;;1999.90;999.90;;;5.80;99.90;;;;;;6155519;23;20456;-94
2021/03/12 05:56:24;;;;;;;;;;;;;;;;;;;;;
2021/03/12 05:59:20;;;;;;;1999.90;999.90;;;5.80;99.90;;;;;;6217398;23;20045;-94
2021/03/12 06:05:54;;;;;;;1999.90;999.90;;;5.80;99.90;;;;;;6214763;23;20025;-94
2021/03/12 06:09:14;;;;;;;;;;;;;;;;;;;;;
2021/03/12 06:12:32;;;;;;;1999.90;999.90;;;5.80;99.90;;;;;;6188923;23;20087;-93
2021/03/12 06:20:12;;;;;;;1999.90;999.90;;;5.80;99.90;;;;;;6243992;23;20065;-93
2021/03/12 06:26:16;;;;;;;1999.90;999.90;;;5.80;99.90;;;;;;6157270;23;20029;-94
2021/03/12 06:29:08;;;;;;;1999.90;999.90;;;5.80;99.90;;;;;;6212007;23;20052;-93
2021/03/12 06:47:06;;;;;;;1999.90;999.90;;;5.80;99.90;;;;;;6187230;23;20376;-94
2021/03/12 07:29:30;;;;;;;;;;;;;;;;;;;;;
2021/03/12 07:40:12;;;;;;;1999.90;999.90;;;5.80;99.90;;;;;;6040942;23;20042;-94
2021/03/12 07:43:09;;;;;;;1999.90;999.90;;;5.90;99.90;;;;;;6035917;23;20027;-93
2021/03/12 07:49:51;;;;;;;1999.90;999.90;;;5.90;99.90;;;;;;6046679;23;20043;-93
2021/03/12 07:57:36;;;;;;;;;;;;;;;;;;;;;
2021/03/12 08:01:17;;;;;;;1999.90;999.90;;;6.00;99.90;;;;;;6187891;23;20032;-93
2021/03/12 08:04:16;;;;;;;1999.90;999.90;;;6.00;99.90;;;;;;6220841;23;20024;-94
2021/03/12 08:14:41;;;;;;;1999.90;999.90;;;6.20;99.90;;;;;;5904107;24;20299;-93
2021/03/12 08:22:23;;;;;;;1999.90;999.90;;;6.30;99.90;;;;;;5857707;24;20026;-93
2021/03/12 08:29:33;;;;;;;1999.90;999.90;;;6.50;99.90;;;;;;5975872;23;20030;-96
2021/03/12 08:32:44;;;;;;;1999.90;999.90;;;6.60;99.90;;;;;;6010648;23;20031;-93
2021/03/12 08:35:56;;;;;;;1999.90;999.90;;;6.60;99.90;;;;;;6009937;23;20122;-93
2021/03/12 08:50:51;;;;;;;1999.90;999.90;;;7.10;99.90;;;;;;5982197;24;20054;-94
2021/03/12 08:53:20;;;;;;;1999.90;999.90;;;7.10;99.90;;;;;;5982173;24;20047;-94
2021/03/12 08:55:49;;;;;;;1999.90;999.90;;;7.10;99.90;;;;;;6077784;23;20031;-94
2021/03/12 08:58:18;;;;;;;1999.90;999.90;;;7.10;99.90;;;;;;6247838;23;20027;-95
2021/03/12 09:00:48;;;;;;;1999.90;999.90;;;7.20;99.90;;;;;;6247478;23;20028;-95
2021/03/12 09:03:20;;;;;;;1999.90;999.90;;;7.20;99.90;;;;;;6248251;23;20447;-96
2021/03/12 09:13:19;;;;;;;1999.90;999.90;;;7.50;99.90;;;;;;6247683;23;20038;-96
2021/03/12 09:15:47;;;;;;;1999.90;999.90;;;7.50;99.90;;;;;;6247216;23;20055;-96
2021/03/12 09:18:32;;;;;;;1999.90;999.90;;;7.60;99.90;;;;;;6247865;23;20027;-96
2021/03/12 09:24:54;;;;;;;1999.90;999.90;;;7.70;99.90;;;;;;5802381;23;11559683;-94
2021/03/12 09:34:51;;;;;;;1999.90;999.90;;;7.70;99.90;;;;;;6090371;23;20019;-94
2021/03/12 09:37:18;;;;;;;1999.90;999.90;;;7.70;99.90;;;;;;6249147;23;20020;-96
2021/03/12 09:59:14;;;;;;;1999.90;999.90;;;7.70;99.90;;;;;;6115027;23;20060;-94
2021/03/12 10:05:48;;;;;;;1999.90;999.90;;;7.60;99.90;;;;;;6073008;23;20074;-95
2021/03/12 10:09:08;;;;;;;1999.90;999.90;;;7.50;99.90;;;;;;6109037;23;20069;-96
2021/03/12 10:11:45;;;;;;;1999.90;999.90;;;7.40;99.90;;;;;;6098239;23;20022;-96
2021/03/12 10:14:27;;;;;;;1999.90;999.90;;;7.30;99.90;;;;;;6249945;23;20024;-96
2021/03/12 10:17:11;;;;;;;1999.90;999.90;;;7.30;99.90;;;;;;6249336;23;20031;-95
2021/03/12 10:20:28;;;;;;;1999.90;999.90;;;7.20;99.90;;;;;;6248783;23;20027;-96
2021/03/12 10:27:53;;;;;;;;;;;;;;;;;;;;;
2021/03/12 10:42:16;;;;;;;1999.90;999.90;;;7.10;99.90;;;;;;5935557;23;20100;-95
2021/03/12 10:44:51;;;;;;;1999.90;999.90;;;7.20;99.90;;;;;;6072541;23;20078;-96
2021/03/12 10:47:18;;;;;;;1999.90;999.90;;;7.20;99.90;;;;;;6126503;23;20037;-95
2021/03/12 10:49:47;;;;;;;1999.90;999.90;;;7.20;99.90;;;;;;6126054;23;20026;-95
2021/03/12 10:52:26;;;;;;;1999.90;999.90;;;7.20;99.90;;;;;;6126043;23;20026;-95
2021/03/12 10:54:56;;;;;;;1999.90;999.90;;;7.30;99.90;;;;;;6126263;23;20029;-95
2021/03/12 10:57:38;;;;;;;1999.90;999.90;;;7.30;99.90;;;;;;6130105;23;20093;-96
2021/03/12 11:00:21;;;;;;;1999.90;999.90;;;7.30;99.90;;;;;;6246046;23;20050;-96
2021/03/12 11:15:19;;;;;;;1999.90;999.90;;;7.50;99.90;;;;;;6021601;23;20039;-96
2021/03/12 11:25:11;;;;;;;1999.90;999.90;;;7.70;99.90;;;;;;5970488;23;20051;-96
2021/03/12 11:36:46;;;;;;;1999.90;999.90;;;7.80;99.90;;;;;;6084007;23;20017;-96
2021/03/12 11:39:24;;;;;;;1999.90;999.90;;;7.90;99.90;;;;;;6122152;23;20034;-96
2021/03/12 11:42:03;;;;;;;1999.90;999.90;;;7.90;99.90;;;;;;6243767;23;20024;-96
2021/03/12 11:44:48;;;;;;;1999.90;999.90;;;7.90;99.90;;;;;;6265517;23;20027;-96
2021/03/12 11:47:45;;;;;;;1999.90;999.90;;;7.90;99.90;;;;;;6269845;23;20067;-96
2021/03/12 11:51:18;;;;;;;1999.90;999.90;;;8.00;99.90;;;;;;6262222;22;20021;-96
2021/03/12 11:53:45;;;;;;;1999.90;999.90;;;7.90;99.90;;;;;;6228031;23;20043;-96
2021/03/12 11:56:14;;;;;;;1999.90;999.90;;;7.90;99.90;;;;;;6251309;23;20020;-96
2021/03/12 11:58:45;;;;;;;1999.90;999.90;;;7.90;99.90;;;;;;6251859;23;20043;-96
2021/03/12 12:01:12;;;;;;;1999.90;999.90;;;7.90;99.90;;;;;;6251642;23;20376;-95
2021/03/12 12:03:41;;;;;;;1999.90;999.90;;;7.80;99.90;;;;;;6251781;23;20024;-95
2021/03/12 12:06:08;;;;;;;1999.90;999.90;;;7.80;99.90;;;;;;6253792;23;20050;-94
2021/03/12 12:08:38;;;;;;;1999.90;999.90;;;7.80;99.90;;;;;;6254404;23;20088;-95
2021/03/12 12:11:08;;;;;;;1999.90;999.90;;;7.90;99.90;;;;;;6259153;23;20024;-96
2021/03/12 12:13:37;;;;;;;1999.90;999.90;;;7.90;99.90;;;;;;6256441;23;20080;-95
2021/03/12 12:16:10;;;;;;;1999.90;999.90;;;7.90;99.90;;;;;;6252708;23;20394;-95
2021/03/12 12:26:15;;;;;;;1999.90;999.90;;;7.90;99.90;;;;;;6248797;23;20130;-95
2021/03/12 12:28:45;;;;;;;1999.90;999.90;;;7.90;99.90;;;;;;6249173;23;20087;-96
2021/03/12 12:31:12;;;;;;;1999.90;999.90;;;7.80;99.90;;;;;;6249393;23;20024;-96
2021/03/12 12:33:44;;;;;;;1999.90;999.90;;;7.90;99.90;;;;;;6250121;23;20378;-95
2021/03/12 12:36:12;;;;;;;1999.90;999.90;;;7.90;99.90;;;;;;6248378;23;20451;-95
2021/03/12 12:38:50;;;;;;;1999.90;999.90;;;7.90;99.90;;;;;;6249168;23;20023;-95
2021/03/12 12:41:19;;;;;;;1999.90;999.90;;;7.90;99.90;;;;;;6249433;23;20098;-96
2021/03/12 12:58:37;;;;;;;1999.90;999.90;;;7.90;99.90;;;;;;6064878;23;20025;-95
2021/03/12 13:01:05;;;;;;;1999.90;999.90;;;7.90;99.90;;;;;;6158030;23;20080;-94
2021/03/12 13:26:59;;;;;;;1999.90;999.90;;;7.20;99.90;;;;;;6246037;22;20050;-96
2021/03/12 13:29:29;;;;;;;1999.90;999.90;;;7.10;99.90;;;;;;6264776;23;20051;-96
2021/03/12 13:31:57;;;;;;;1999.90;999.90;;;7.00;99.90;;;;;;6259435;23;20035;-96
2021/03/12 13:34:24;;;;;;;1999.90;999.90;;;6.90;99.90;;;;;;6259014;23;20078;-96
2021/03/12 13:36:52;;;;;;;1999.90;999.90;;;6.80;99.90;;;;;;6255604;23;20030;-96
2021/03/12 13:39:19;;;;;;;1999.90;999.90;;;6.80;99.90;;;;;;6256272;23;20020;-96
2021/03/12 13:41:47;;;;;;;1999.90;999.90;;;6.80;99.90;;;;;;6257440;23;20028;-96
2021/03/12 13:44:15;;;;;;;1999.90;999.90;;;6.70;99.90;;;;;;6257834;23;20404;-96
2021/03/12 13:46:44;;;;;;;1999.90;999.90;;;6.80;99.90;;;;;;6253017;23;20026;-96
2021/03/12 13:49:12;;;;;;;1999.90;999.90;;;6.70;99.90;;;;;;6250708;23;20016;-96
2021/03/12 13:51:45;;;;;;;1999.90;999.90;;;6.70;99.90;;;;;;6249354;23;20031;-96
2021/03/12 13:54:12;;;;;;;1999.90;999.90;;;6.60;99.90;;;;;;6248896;23;20024;-96
2021/03/12 13:56:44;;;;;;;1999.90;999.90;;;6.60;99.90;;;;;;6248565;23;20042;-96
2021/03/12 13:59:11;;;;;;;1999.90;999.90;;;6.50;99.90;;;;;;6250598;23;20016;-96
2021/03/12 14:01:39;;;;;;;1999.90;999.90;;;6.40;99.90;;;;;;6248236;23;20026;-95
2021/03/12 14:04:07;;;;;;;1999.90;999.90;;;6.40;99.90;;;;;;6248281;23;20510;-95
2021/03/12 14:06:38;;;;;;;1999.90;999.90;;;6.40;99.90;;;;;;6248302;23;20024;-95
2021/03/12 14:09:17;;;;;;;1999.90;999.90;;;6.40;99.90;;;;;;6247939;23;20016;-95
2021/03/12 14:11:47;;;;;;;1999.90;999.90;;;6.30;99.90;;;;;;6248027;23;20108;-95
2021/03/12 14:14:15;;;;;;;1999.90;999.90;;;6.20;99.90;;;;;;6247801;23;20024;-95
2021/03/12 14:16:45;;;;;;;1999.90;999.90;;;6.10;99.90;;;;;;6248090;23;20099;-95
2021/03/12 14:19:14;;;;;;;1999.90;999.90;;;6.00;99.90;;;;;;6247962;23;20047;-95
2021/03/12 14:21:41;;;;;;;1999.90;999.90;;;6.10;99.90;;;;;;6252629;23;20030;-96
2021/03/12 14:24:23;;;;;;;1999.90;999.90;;;6.10;99.90;;;;;;6255286;23;20020;-96
2021/03/12 14:26:51;;;;;;;1999.90;999.90;;;6.00;99.90;;;;;;6252303;23;20024;-96
2021/03/12 14:29:26;;;;;;;1999.90;999.90;;;6.00;99.90;;;;;;6252317;23;20024;-95
2021/03/12 14:31:56;;;;;;;1999.90;999.90;;;6.00;99.90;;;;;;6251292;23;20024;-96
2021/03/12 14:34:24;;;;;;;1999.90;999.90;;;6.00;99.90;;;;;;6248434;23;20095;-96
2021/03/12 14:36:52;;;;;;;1999.90;999.90;;;6.00;99.90;;;;;;6250038;23;20020;-96
2021/03/12 14:39:20;;;;;;;1999.90;999.90;;;6.00;99.90;;;;;;6253594;23;20071;-96
2021/03/12 14:41:48;;;;;;;1999.90;999.90;;;6.10;99.90;;;;;;6254558;23;20099;-96
2021/03/12 14:44:27;;;;;;;1999.90;999.90;;;6.10;99.90;;;;;;6257241;23;20023;-96
2021/03/12 14:46:58;;;;;;;1999.90;999.90;;;6.20;99.90;;;;;;6258292;22;20031;-96
2021/03/12 14:49:29;;;;;;;1999.90;999.90;;;6.30;99.90;;;;;;6260193;23;20031;-96
2021/03/12 14:52:19;;;;;;;1999.90;999.90;;;6.40;99.90;;;;;;6268766;23;20059;-96
2021/03/12 14:54:52;;;;;;;1999.90;999.90;;;6.40;99.90;;;;;;6265852;23;20020;-96
2021/03/12 14:57:25;;;;;;;1999.90;999.90;;;6.50;99.90;;;;;;6262028;23;20072;-96
2021/03/12 14:59:56;;;;;;;1999.90;999.90;;;6.60;99.90;;;;;;6264058;23;20024;-96
2021/03/12 15:02:31;;;;;;;1999.90;999.90;;;6.60;99.90;;;;;;6266164;23;20028;-96
2021/03/12 15:05:18;;;;;;;1999.90;999.90;;;6.80;99.90;;;;;;6266727;23;20091;-96
2021/03/12 15:08:17;;;;;;;1999.90;999.90;;;6.80;99.90;;;;;;6263668;23;20074;-96
2021/03/12 15:10:46;;;;;;;1999.90;999.90;;;6.90;99.90;;;;;;6249773;23;20412;-96
2021/03/12 15:13:14;;;;;;;1999.90;999.90;;;7.10;99.90;;;;;;6248502;23;20024;-96
2021/03/12 15:15:43;;;;;;;1999.90;999.90;;;7.20;99.90;;;;;;6249056;23;20020;-95
2021/03/12 15:18:13;;;;;;;1999.90;999.90;;;7.20;99.90;;;;;;6261723;23;20047;-96
2021/03/12 15:20:47;;;;;;;1999.90;999.90;;;7.30;99.90;;;;;;6262179;23;20028;-96
2021/03/12 15:23:46;;;;;;;1999.90;999.90;;;7.30;99.90;;;;;;6259853;23;20046;-96
2021/03/12 15:26:28;;;;;;;1999.90;999.90;;;7.40;99.90;;;;;;6252221;23;20031;-96
2021/03/12 15:28:57;;;;;;;1999.90;999.90;;;7.50;99.90;;;;;;6228967;23;20028;-96
2021/03/12 15:31:25;;;;;;;1999.90;999.90;;;7.40;99.90;;;;;;6228602;23;20024;-96
2021/03/12 15:34:13;;;;;;;1999.90;999.90;;;7.40;99.90;;;;;;6227190;23;20024;-96
2021/03/12 15:36:59;;;;;;;1999.90;999.90;;;7.50;99.90;;;;;;6228188;23;20025;-96
2021/03/12 15:39:38;;;;;;;1999.90;999.90;;;7.50;99.90;;;;;;6224267;23;20021;-96
2021/03/12 15:42:10;;;;;;;1999.90;999.90;;;7.60;99.90;;;;;;6226549;23;20051;-96
2021/03/12 15:47:35;;;;;;;1999.90;999.90;;;7.80;99.90;;;;;;6223808;23;20024;-96
2021/03/12 15:50:15;;;;;;;1999.90;999.90;;;7.80;99.90;;;;;;6225693;23;20029;-96
2021/03/12 15:53:02;;;;;;;1999.90;999.90;;;7.80;99.90;;;;;;6225415;23;20045;-96
2021/03/12 15:55:45;;;;;;;1999.90;999.90;;;7.80;99.90;;;;;;6225241;23;20024;-96
2021/03/12 15:58:13;;;;;;;1999.90;999.90;;;7.80;99.90;;;;;;6223722;23;20146;-96
2021/03/12 16:00:48;;;;;;;1999.90;999.90;;;7.80;99.90;;;;;;6222263;23;20020;-95
2021/03/12 16:03:18;;;;;;;1999.90;999.90;;;7.80;99.90;;;;;;6220611;23;20070;-96
2021/03/12 16:05:47;;;;;;;1999.90;999.90;;;7.90;99.90;;;;;;6219193;23;20324;-95
2021/03/12 16:08:14;;;;;;;1999.90;999.90;;;7.90;99.90;;;;;;6219787;23;20040;-95
2021/03/12 16:10:44;;;;;;;1999.90;999.90;;;7.90;99.90;;;;;;6220348;23;20055;-94
2021/03/12 16:13:15;;;;;;;1999.90;999.90;;;7.90;99.90;;;;;;6220402;23;20099;-95
2021/03/12 16:15:42;;;;;;;1999.90;999.90;;;7.90;99.90;;;;;;6219839;23;20020;-95
2021/03/12 16:18:10;;;;;;;1999.90;999.90;;;7.90;99.90;;;;;;6220090;23;20074;-96
2021/03/12 16:20:58;;;;;;;1999.90;999.90;;;7.80;99.90;;;;;;6219508;23;20044;-95
2021/03/12 16:23:28;;;;;;;1999.90;999.90;;;7.90;99.90;;;;;;6219692;23;20048;-94
2021/03/12 16:25:55;;;;;;;1999.90;999.90;;;7.80;99.90;;;;;;6223123;23;20032;-95
2021/03/12 16:35:51;;;;;;;;;;;;;;;;;;;;;
2021/03/12 16:39:32;;;;;;;1999.90;999.90;;;7.80;99.90;;;;;;6166388;23;20092;-95
2021/03/12 16:42:01;;;;;;;1999.90;999.90;;;7.80;99.90;;;;;;6247421;23;20024;-96
2021/03/12 16:44:30;;;;;;;1999.90;999.90;;;7.80;99.90;;;;;;6253017;23;20075;-96
2021/03/12 16:47:34;;;;;;;1999.90;999.90;;;7.80;99.90;;;;;;6252493;23;20028;-96
2021/03/12 16:54:46;;;;;;;1999.90;999.90;;;7.80;99.90;;;;;;6065769;23;20082;-96
2021/03/12 16:57:16;;;;;;;1999.90;999.90;;;7.70;99.90;;;;;;6158127;23;20037;-96
2021/03/12 16:59:47;;;;;;;1999.90;999.90;;;7.70;99.90;;;;;;6163178;23;20037;-96
2021/03/12 17:02:19;;;;;;;1999.90;999.90;;;7.70;99.90;;;;;;6162873;23;20028;-96
2021/03/12 17:04:47;;;;;;;1999.90;999.90;;;7.60;99.90;;;;;;6160852;23;20160;-96
2021/03/12 17:07:17;;;;;;;1999.90;999.90;;;7.70;99.90;;;;;;6165680;23;20022;-96
2021/03/12 17:10:03;;;;;;;1999.90;999.90;;;7.60;99.90;;;;;;6252952;23;20017;-96
2021/03/12 17:12:33;;;;;;;1999.90;999.90;;;7.70;99.90;;;;;;6250945;23;20024;-96
2021/03/12 17:15:01;;;;;;;1999.90;999.90;;;7.60;99.90;;;;;;6257345;23;20020;-96
2021/03/12 17:17:28;;;;;;;1999.90;999.90;;;7.60;99.90;;;;;;6256050;23;20024;-96
2021/03/12 17:19:56;;;;;;;1999.90;999.90;;;7.60;99.90;;;;;;6265565;23;20016;-96
2021/03/12 17:22:23;;;;;;;1999.90;999.90;;;7.60;99.90;;;;;;6272240;22;20019;-96
2021/03/12 17:24:57;;;;;;;1999.90;999.90;;;7.60;99.90;;;;;;6267727;23;20035;-96
2021/03/12 18:07:52;;;;;;;1999.90;999.90;;;7.40;99.90;;;;;;6230003;22;20029;-96
2021/03/12 18:10:26;;;;;;;1999.90;999.90;;;7.40;99.90;;;;;;6231500;23;20075;-96
2021/03/12 18:12:53;;;;;;;1999.90;999.90;;;7.40;99.90;;;;;;6224898;23;20072;-94
2021/03/12 18:15:22;;;;;;;1999.90;999.90;;;7.40;99.90;;;;;;6216795;23;20072;-94
2021/03/12 18:17:49;;;;;;;1999.90;999.90;;;7.40;99.90;;;;;;6217316;23;20036;-95
2021/03/12 18:20:18;;;;;;;1999.90;999.90;;;7.40;99.90;;;;;;6219703;23;20025;-96
2021/03/12 18:22:59;;;;;;;1999.90;999.90;;;7.40;99.90;;;;;;6219007;23;20028;-95
2021/03/12 18:40:12;;;;;;;1999.90;999.90;;;7.30;99.90;;;;;;6173379;23;19955;-96
2021/03/12 18:42:41;;;;;;;1999.90;999.90;;;7.30;99.90;;;;;;6213027;23;20033;-96
2021/03/12 18:45:10;;;;;;;1999.90;999.90;;;7.20;99.90;;;;;;6218025;23;20020;-96
2021/03/12 18:47:37;;;;;;;1999.90;999.90;;;7.30;99.90;;;;;;6218048;23;20021;-96
2021/03/12 18:50:08;;;;;;;1999.90;999.90;;;7.20;99.90;;;;;;6218578;23;20020;-96
2021/03/12 18:52:36;;;;;;;1999.90;999.90;;;7.20;99.90;;;;;;6218018;23;20025;-95
2021/03/12 18:55:05;;;;;;;1999.90;999.90;;;7.20;99.90;;;;;;6218761;23;20021;-96
2021/03/12 18:58:07;;;;;;;1999.90;999.90;;;7.20;99.90;;;;;;6220620;23;20074;-95
2021/03/12 19:00:36;;;;;;;1999.90;999.90;;;7.20;99.90;;;;;;6228094;23;20017;-95
2021/03/12 19:03:04;;;;;;;1999.90;999.90;;;7.20;99.90;;;;;;6228024;23;20095;-96
2021/03/12 19:05:32;;;;;;;1999.90;999.90;;;7.20;99.90;;;;;;6226389;23;20020;-96
2021/03/12 19:14:41;;;;;;;1999.90;999.90;;;7.10;99.90;;;;;;6106695;23;20094;-95
2021/03/12 19:17:09;;;;;;;1999.90;999.90;;;7.10;99.90;;;;;;6106714;23;20033;-96
2021/03/12 19:19:37;;;;;;;1999.90;999.90;;;7.10;99.90;;;;;;6107459;23;20050;-96
2021/03/12 19:22:04;;;;;;;1999.90;999.90;;;7.10;99.90;;;;;;6106445;23;20026;-96
2021/03/12 19:24:32;;;;;;;1999.90;999.90;;;7.00;99.90;;;;;;6106374;23;20069;-95
2021/03/12 19:27:00;;;;;;;1999.90;999.90;;;7.00;99.90;;;;;;6105436;23;20031;-96
2021/03/12 19:40:47;;;;;;;1999.90;999.90;;;7.00;99.90;;;;;;5883998;24;20025;-96
2021/03/12 19:43:15;;;;;;;1999.90;999.90;;;6.90;99.90;;;;;;6102638;23;20511;-96
2021/03/12 19:45:43;;;;;;;1999.90;999.90;;;7.00;99.90;;;;;;6160227;23;20021;-96
2021/03/12 19:48:10;;;;;;;1999.90;999.90;;;6.90;99.90;;;;;;6160725;23;20032;-96
2021/03/12 19:50:39;;;;;;;1999.90;999.90;;;7.00;99.90;;;;;;6158570;23;20025;-96
2021/03/12 19:53:07;;;;;;;1999.90;999.90;;;7.00;99.90;;;;;;6159797;23;20022;-96
2021/03/12 20:37:38;;;;;;;1999.90;999.90;;;7.00;99.90;;;;;;5847706;24;20026;-96
2021/03/12 20:40:18;;;;;;;1999.90;999.90;;;7.00;99.90;;;;;;5897425;24;20025;-96
2021/03/12 20:43:00;;;;;;;1999.90;999.90;;;6.90;99.90;;;;;;5986844;23;20028;-95
2021/03/12 20:46:15;;;;;;;1999.90;999.90;;;7.00;99.90;;;;;;6095287;23;20026;-96
2021/03/12 20:49:36;;;;;;;;;;;;;;;;;;;;;
2021/03/12 21:12:14;;;;;;;1999.90;999.90;;;7.00;99.90;;;;;;5835867;24;20025;-94
2021/03/12 21:22:22;;;;;;;1999.90;999.90;;;7.10;99.90;;;;;;5860400;24;20057;-96
2021/03/12 21:24:49;;;;;;;1999.90;999.90;;;7.10;99.90;;;;;;6079402;23;20029;-96
2021/03/12 21:28:14;;;;;;;1999.90;999.90;;;7.10;99.90;;;;;;6190254;23;20042;-95
2021/03/12 21:31:46;;;;;;;;;;;;;;;;;;;;;
2021/03/12 21:38:25;;;;;;;1999.90;999.90;;;7.10;99.90;;;;;;5859823;24;20109;-94
2021/03/12 21:40:52;;;;;;;1999.90;999.90;;;7.10;99.90;;;;;;5957098;24;20057;-95
2021/03/12 21:43:20;;;;;;;1999.90;999.90;;;7.10;99.90;;;;;;5956409;24;20470;-96
2021/03/12 21:45:47;;;;;;;1999.90;999.90;;;7.10;99.90;;;;;;6033034;23;20026;-96
2021/03/12 21:48:15;;;;;;;1999.90;999.90;;;7.10;99.90;;;;;;6069010;23;20023;-96
2021/03/12 21:50:43;;;;;;;1999.90;999.90;;;7.00;99.90;;;;;;6069924;23;20059;-96
2021/03/12 21:53:11;;;;;;;1999.90;999.90;;;7.00;99.90;;;;;;6069331;23;20042;-96
2021/03/12 21:55:39;;;;;;;1999.90;999.90;;;7.00;99.90;;;;;;6069792;23;20046;-96
2021/03/12 21:58:19;;;;;;;1999.90;999.90;;;7.00;99.90;;;;;;6069587;23;20109;-95
2021/03/12 22:00:47;;;;;;;1999.90;999.90;;;7.00;99.90;;;;;;6068744;23;20074;-96
2021/03/12 22:03:14;;;;;;;1999.90;999.90;;;7.00;99.90;;;;;;6068287;23;20030;-96
2021/03/12 22:05:42;;;;;;;1999.90;999.90;;;6.90;99.90;;;;;;6068250;23;20027;-96
2021/03/12 22:08:10;;;;;;;1999.90;999.90;;;6.90;99.90;;;;;;6132735;23;20083;-95
2021/03/12 22:10:39;;;;;;;1999.90;999.90;;;6.90;99.90;;;;;;6217863;23;20021;-96
2021/03/12 22:13:08;;;;;;;1999.90;999.90;;;6.90;99.90;;;;;;6217236;23;20032;-96
2021/03/12 22:15:35;;;;;;;1999.90;999.90;;;6.90;99.90;;;;;;6217616;23;20024;-95
2021/03/12 22:18:03;;;;;;;1999.90;999.90;;;6.90;99.90;;;;;;6218233;23;20456;-96
2021/03/12 22:23:23;;;;;;;1999.90;999.90;;;6.90;99.90;;;;;;6210660;23;20025;-95
2021/03/12 22:25:51;;;;;;;1999.90;999.90;;;6.90;99.90;;;;;;6219020;23;20031;-95
2021/03/12 22:28:18;;;;;;;1999.90;999.90;;;6.90;99.90;;;;;;6217492;23;20024;-96
2021/03/12 22:30:46;;;;;;;1999.90;999.90;;;6.80;99.90;;;;;;6218606;23;20055;-96
2021/03/12 22:33:13;;;;;;;1999.90;999.90;;;6.80;99.90;;;;;;6218305;23;20025;-96
2021/03/12 22:35:41;;;;;;;1999.90;999.90;;;6.80;99.90;;;;;;6217800;23;20051;-95
2021/03/12 22:38:08;;;;;;;1999.90;999.90;;;6.80;99.90;;;;;;6217560;23;20032;-96
2021/03/12 22:40:36;;;;;;;1999.90;999.90;;;6.80;99.90;;;;;;6216785;23;20016;-94
2021/03/12 22:43:04;;;;;;;1999.90;999.90;;;6.80;99.90;;;;;;6217571;23;20025;-95
2021/03/12 22:45:32;;;;;;;1999.90;999.90;;;6.70;99.90;;;;;;6217448;23;20083;-96
2021/03/12 22:47:59;;;;;;;1999.90;999.90;;;6.80;99.90;;;;;;6217116;23;20039;-96
2021/03/12 22:50:29;;;;;;;1999.90;999.90;;;6.70;99.90;;;;;;6217790;23;20071;-96
2021/03/12 22:52:57;;;;;;;1999.90;999.90;;;6.70;99.90;;;;;;6217315;23;20452;-96
2021/03/12 22:55:25;;;;;;;1999.90;999.90;;;6.70;99.90;;;;;;6217654;23;20375;-95
2021/03/12 22:57:53;;;;;;;1999.90;999.90;;;6.70;99.90;;;;;;6217194;23;20024;-95
2021/03/12 23:00:23;;;;;;;1999.90;999.90;;;6.70;99.90;;;;;;6217317;23;20024;-95